createdAt,value
2023-01-30T00:01:32.548Z,100891.10
2023-01-30T00:04:01.412Z,100891.55
2023-01-30T00:06:29.766Z,100892.98
2023-01-30T00:08:57.843Z,100894.48
2023-01-30T00:11:26.462Z,100893.26
2023-01-30T00:13:56.181Z,100897.20
2023-01-30T00:16:24.454Z,100894.29
2023-01-30T00:18:52.598Z,100894.75
2023-01-30T00:21:21.201Z,100890.88
2023-01-30T00:23:54.217Z,100892.21
2023-01-30T00:26:22.530Z,100885.81
2023-01-30T00:28:50.639Z,100886.23
2023-01-30T00:31:21.687Z,100885.86
2023-01-30T00:33:51.851Z,100887.67
2023-01-30T00:36:19.944Z,100886.18
2023-01-30T00:38:48.323Z,100884.22
2023-01-30T00:41:19.021Z,100886.73
2023-01-30T00:44:05.853Z,100882.30
2023-01-30T00:46:53.560Z,100884.71
2023-01-30T00:49:21.645Z,100883.73
2023-01-30T00:51:50.070Z,100881.11
2023-01-30T00:54:18.344Z,100883.82
2023-01-30T00:56:46.635Z,100882.90
2023-01-30T00:59:14.793Z,100881.84
2023-01-30T01:01:42.863Z,100881.86
2023-01-30T01:04:11.968Z,100882.09
2023-01-30T01:06:44.453Z,100883.29
2023-01-30T01:09:12.796Z,100887.27
2023-01-30T01:11:41.916Z,100884.16
2023-01-30T01:14:10.588Z,100881.20
2023-01-30T01:16:40.507Z,100881.80
2023-01-30T01:19:08.633Z,100878.95
2023-01-30T01:21:37.049Z,100874.86
2023-01-30T01:24:06.607Z,100877.11
2023-01-30T01:26:35.465Z,100875.97
2023-01-30T01:29:04.265Z,100875.63
2023-01-30T01:31:33.140Z,100875.95
2023-01-30T01:34:01.548Z,100880.31
2023-01-30T01:36:52.296Z,100879.59
2023-01-30T01:39:17.978Z,100881.55
2023-01-30T01:41:46.098Z,100881.05
2023-01-30T01:44:14.449Z,100880.16
2023-01-30T01:46:52.126Z,100879.09
2023-01-30T01:49:30.756Z,100880.29
2023-01-30T01:52:09.885Z,100876.02
2023-01-30T01:54:42.045Z,100876.94
2023-01-30T01:57:16.382Z,100877.67
2023-01-30T01:59:46.793Z,100880.73
2023-01-30T02:02:17.324Z,100882.62
2023-01-30T02:05:06.995Z,100882.38
2023-01-30T02:07:37.727Z,100881.89
2023-01-30T02:10:07.326Z,100877.80
2023-01-30T02:12:35.791Z,100875.23
2023-01-30T02:15:04.533Z,100871.77
2023-01-30T02:17:36.280Z,100868.52
2023-01-30T02:20:20.227Z,100866.88
2023-01-30T02:23:28.019Z,100868.96
2023-01-30T02:26:30.301Z,100869.21
2023-01-30T02:29:07.268Z,100862.17
2023-01-30T02:31:56.620Z,100858.46
2023-01-30T02:34:50.002Z,100857.20
2023-01-30T02:37:27.571Z,100856.60
2023-01-30T02:40:53.636Z,100855.11
2023-01-30T02:43:26.605Z,100844.10
2023-01-30T02:45:57.554Z,100847.88
2023-01-30T02:48:30.917Z,100848.21
2023-01-30T02:51:01.504Z,100846.50
2023-01-30T02:53:34.198Z,100849.67
2023-01-30T02:56:02.816Z,100852.32
2023-01-30T02:58:35.133Z,100857.16
2023-01-30T03:01:28.712Z,100857.69
2023-01-30T03:04:18.583Z,100862.59
2023-01-30T03:06:57.379Z,100860.88
2023-01-30T03:10:05.738Z,100859.14
2023-01-30T03:12:53.930Z,100853.69
2023-01-30T03:15:46.334Z,100854.70
2023-01-30T03:18:14.406Z,100855.69
2023-01-30T03:20:42.433Z,100856.30
2023-01-30T03:23:21.752Z,100855.80
2023-01-30T03:25:49.859Z,100860.51
2023-01-30T03:28:19.796Z,100864.75
2023-01-30T03:30:48.087Z,100865.61
2023-01-30T03:33:16.281Z,100864.77
2023-01-30T03:35:49.157Z,100869.52
2023-01-30T03:38:18.384Z,100868.57
2023-01-30T03:40:47.394Z,100870.31
2023-01-30T03:43:16.335Z,100868.15
2023-01-30T03:45:48.171Z,100864.87
2023-01-30T03:48:17.122Z,100870.00
2023-01-30T03:50:45.635Z,100873.00
2023-01-30T03:53:15.280Z,100872.73
2023-01-30T03:55:44.859Z,100878.08
2023-01-30T03:58:12.987Z,100876.71
2023-01-30T04:00:41.162Z,100876.22
2023-01-30T04:03:09.748Z,100883.58
2023-01-30T04:05:38.886Z,100879.31
2023-01-30T04:08:08.646Z,100881.09
2023-01-30T04:10:36.774Z,100883.55
2023-01-30T04:13:05.754Z,100885.64
2023-01-30T04:15:34.178Z,100891.83
2023-01-30T04:18:21.004Z,100893.92
2023-01-30T04:21:15.376Z,100893.90
2023-01-30T04:23:43.480Z,100893.08
2023-01-30T04:26:12.104Z,100890.45
2023-01-30T04:28:41.142Z,100891.02
2023-01-30T04:31:09.345Z,100884.45
2023-01-30T04:33:40.365Z,100885.41
2023-01-30T04:36:10.145Z,100881.63
2023-01-30T04:38:38.538Z,100886.27
2023-01-30T04:41:10.374Z,100889.98
2023-01-30T04:43:41.452Z,100888.37
2023-01-30T04:46:12.260Z,100889.46
2023-01-30T04:48:41.685Z,100889.36
2023-01-30T04:51:10.749Z,100886.70
2023-01-30T04:53:39.371Z,100885.21
2023-01-30T04:56:07.876Z,100884.84
2023-01-30T04:58:36.135Z,100882.70
2023-01-30T05:01:21.686Z,100879.66
2023-01-30T05:03:53.788Z,100878.43
2023-01-30T05:06:22.504Z,100878.05
2023-01-30T05:08:55.380Z,100878.39
2023-01-30T05:11:24.864Z,100885.17
2023-01-30T05:13:53.142Z,100890.42
2023-01-30T05:16:21.826Z,100897.66
2023-01-30T05:18:50.572Z,100895.66
2023-01-30T05:21:23.357Z,100897.56
2023-01-30T05:23:53.022Z,100892.64
2023-01-30T05:26:21.498Z,100895.54
2023-01-30T05:28:56.720Z,100898.88
2023-01-30T05:31:24.899Z,100904.71
2023-01-30T05:33:53.235Z,100909.44
2023-01-30T05:36:22.333Z,100912.59
2023-01-30T05:38:50.551Z,100916.58
2023-01-30T05:41:19.607Z,100918.34
2023-01-30T05:43:51.146Z,100918.31
2023-01-30T05:46:19.531Z,100914.35
2023-01-30T05:48:47.818Z,100915.26
2023-01-30T05:51:20.231Z,100912.95
2023-01-30T05:53:52.788Z,100909.13
2023-01-30T05:56:21.083Z,100901.41
2023-01-30T05:58:56.363Z,100906.75
2023-01-30T06:01:26.795Z,100907.60
2023-01-30T06:03:55.129Z,100910.46
2023-01-30T06:06:23.250Z,100909.64
2023-01-30T06:08:55.622Z,100906.46
2023-01-30T06:11:24.784Z,100904.39
2023-01-30T06:13:53.036Z,100900.71
2023-01-30T06:16:21.626Z,100892.60
2023-01-30T06:18:50.478Z,100890.16
2023-01-30T06:21:18.924Z,100892.21
2023-01-30T06:23:47.530Z,100893.92
2023-01-30T06:26:16.164Z,100887.23
2023-01-30T06:28:45.058Z,100884.61
2023-01-30T06:31:17.015Z,100881.58
2023-01-30T06:33:46.787Z,100878.59
2023-01-30T06:36:15.417Z,100875.59
2023-01-30T06:38:44.145Z,100879.71
2023-01-30T06:41:12.653Z,100883.16
2023-01-30T06:43:44.494Z,100882.08
2023-01-30T06:46:15.028Z,100878.80
2023-01-30T06:48:46.407Z,100879.61
2023-01-30T06:51:15.348Z,100882.04
2023-01-30T06:53:44.226Z,100878.67
2023-01-30T06:56:14.115Z,100878.08
2023-01-30T06:58:43.159Z,100882.14
2023-01-30T07:01:12.920Z,100879.77
2023-01-30T07:03:41.339Z,100871.80
2023-01-30T07:06:14.153Z,100872.02
2023-01-30T07:08:45.320Z,100867.46
2023-01-30T07:11:17.560Z,100871.33
2023-01-30T07:13:48.447Z,100867.54
2023-01-30T07:16:17.954Z,100864.90
2023-01-30T07:18:53.558Z,100860.63
2023-01-30T07:21:22.751Z,100855.22
2023-01-30T07:23:52.057Z,100857.20
2023-01-30T07:26:22.594Z,100859.02
2023-01-30T07:28:53.051Z,100854.33
2023-01-30T07:31:24.026Z,100851.77
2023-01-30T07:36:39.965Z,100852.73
2023-01-30T07:39:09.746Z,100856.00
2023-01-30T07:41:38.943Z,100857.22
2023-01-30T07:44:14.881Z,100860.02
2023-01-30T07:46:45.218Z,100858.68
2023-01-30T07:49:18.167Z,100853.98
2023-01-30T07:51:47.688Z,100855.35
2023-01-30T08:03:51.693Z,100857.33
2023-01-30T08:06:49.638Z,100857.70
2023-01-30T08:12:07.883Z,100863.70
2023-01-30T08:24:01.466Z,100854.66
2023-01-30T08:30:20.584Z,100843.63
2023-01-30T08:33:05.994Z,100838.23
2023-01-30T08:38:45.689Z,100834.65
2023-01-30T08:44:34.043Z,100828.17
2023-01-30T08:47:35.338Z,100822.33
2023-01-30T08:53:11.218Z,100815.68
2023-01-30T08:55:40.607Z,100814.10
2023-01-30T08:58:16.602Z,100808.81
2023-01-30T09:00:59.023Z,100809.28
2023-01-30T09:03:27.504Z,100805.59
2023-01-30T09:11:55.767Z,100795.27
2023-01-30T09:14:38.728Z,100792.33
2023-01-30T09:20:03.976Z,100785.51
2023-01-30T09:25:24.694Z,100773.52
2023-01-30T09:31:37.207Z,100766.13
2023-01-30T09:34:17.137Z,100760.77
2023-01-30T09:39:47.273Z,100756.17
2023-01-30T09:42:39.736Z,100749.23
2023-01-30T09:45:43.180Z,100740.10
2023-01-30T09:48:42.573Z,100733.06
2023-01-30T09:51:29.975Z,100723.52
2023-01-30T09:54:06.803Z,100719.59
2023-01-30T10:00:14.379Z,100708.23
2023-01-30T10:03:03.332Z,100707.69
2023-01-30T10:06:00.862Z,100700.98
2023-01-30T10:08:42.257Z,100694.51
2023-01-30T10:11:29.949Z,100689.35
2023-01-30T10:18:24.797Z,100681.98
2023-01-30T10:21:15.805Z,100678.38
2023-01-30T10:24:12.212Z,100675.73
2023-01-30T10:26:54.902Z,100673.33
2023-01-30T10:35:42.064Z,100656.00
2023-01-30T11:01:58.774Z,100619.34
2023-01-30T11:04:55.995Z,100610.58
2023-01-30T11:07:40.394Z,100608.95
2023-01-30T11:10:38.878Z,100605.60
2023-01-30T11:13:32.600Z,100603.52
2023-01-30T11:16:20.737Z,100605.02
2023-01-30T11:22:13.354Z,100596.48
2023-01-30T11:25:30.791Z,100594.05
2023-01-30T11:32:25.923Z,100578.42
2023-01-30T11:41:29.459Z,100565.14
2023-01-30T11:44:13.817Z,100562.39
2023-01-30T11:47:04.674Z,100561.89
2023-01-30T11:58:40.031Z,100552.98
2023-01-30T12:01:13.240Z,100551.08
2023-01-30T12:09:39.851Z,100546.83
2023-01-30T12:15:36.328Z,100536.04
2023-01-30T12:18:16.068Z,100533.27
2023-01-30T12:21:06.700Z,100530.25
2023-01-30T12:28:47.374Z,100530.67
2023-01-30T12:31:42.115Z,100523.92
2023-01-30T12:34:18.001Z,100519.30
2023-01-30T12:40:40.541Z,100515.40
2023-01-30T12:43:28.409Z,100515.13
2023-01-30T12:47:04.521Z,100513.79
2023-01-30T12:50:30.642Z,100507.69
2023-01-30T12:53:44.273Z,100505.45
2023-01-30T12:56:51.747Z,100502.09
2023-01-30T12:59:44.682Z,100500.16
2023-01-30T13:10:21.188Z,100491.52
2023-01-30T13:13:18.366Z,100483.73
2023-01-30T13:15:59.550Z,100481.25
2023-01-30T13:18:36.310Z,100477.52
2023-01-30T13:21:14.547Z,100477.03
2023-01-30T13:24:38.606Z,100473.55
2023-01-30T13:30:24.493Z,100468.09
2023-01-30T13:37:16.851Z,100464.71
2023-01-30T13:43:12.461Z,100466.88
2023-01-30T13:45:45.038Z,100461.63
2023-01-30T13:54:43.297Z,100466.96
2023-01-30T13:58:23.296Z,100466.77
2023-01-30T14:00:55.462Z,100460.77
2023-01-30T14:03:33.634Z,100462.10
2023-01-30T14:09:21.570Z,100461.84
2023-01-30T14:15:10.540Z,100462.19
2023-01-30T14:27:29.109Z,100454.73
2023-01-30T14:30:01.567Z,100452.95
2023-01-30T14:36:07.585Z,100445.66
2023-01-30T14:38:58.688Z,100444.88
2023-01-30T15:05:28.285Z,100436.80
2023-01-30T15:08:17.719Z,100441.55
2023-01-30T15:10:53.161Z,100444.59
2023-01-30T15:13:58.817Z,100446.73
2023-01-30T15:16:36.241Z,100447.27
2023-01-30T15:19:07.655Z,100442.92
2023-01-30T15:21:54.898Z,100444.13
2023-01-30T15:24:35.807Z,100445.17
2023-01-30T15:27:12.836Z,100443.82
2023-01-30T15:30:03.290Z,100447.67
2023-01-30T15:32:32.224Z,100448.39
2023-01-30T15:35:17.156Z,100449.75
2023-01-30T15:37:53.365Z,100449.34
2023-01-30T15:40:27.668Z,100445.09
2023-01-30T15:43:14.480Z,100450.02
2023-01-30T15:46:28.040Z,100447.65
2023-01-30T15:49:37.496Z,100450.98
2023-01-30T15:52:07.499Z,100449.50
2023-01-30T15:54:35.790Z,100444.77
2023-01-30T15:57:04.336Z,100448.61
2023-01-30T15:59:40.156Z,100447.45
2023-01-30T16:02:14.355Z,100446.70
2023-01-30T16:04:43.075Z,100443.45
2023-01-30T16:07:20.921Z,100446.67
2023-01-30T16:10:07.224Z,100447.05
2023-01-30T16:12:41.011Z,100444.55
2023-01-30T16:15:20.311Z,100445.41
2023-01-30T16:17:55.701Z,100444.39
2023-01-30T16:20:23.982Z,100443.90
2023-01-30T16:22:53.266Z,100447.35
2023-01-30T16:25:24.423Z,100448.77
2023-01-30T16:27:53.751Z,100452.02
2023-01-30T16:30:26.951Z,100450.42
2023-01-30T16:32:55.947Z,100452.50
2023-01-30T16:35:27.077Z,100451.29
2023-01-30T16:37:58.946Z,100452.84
2023-01-30T16:40:33.338Z,100452.73
2023-01-30T16:43:03.042Z,100451.27
2023-01-30T16:45:34.711Z,100450.72
2023-01-30T16:48:18.575Z,100450.13
2023-01-30T16:50:48.646Z,100450.89
2023-01-30T16:53:18.864Z,100446.79
2023-01-30T16:56:02.844Z,100445.80
2023-01-30T16:58:32.725Z,100443.10
2023-01-30T17:01:02.233Z,100446.78
2023-01-30T17:03:34.145Z,100447.11
2023-01-30T17:06:12.722Z,100444.53
2023-01-30T17:08:48.686Z,100446.33
2023-01-30T17:11:37.913Z,100441.85
2023-01-30T17:14:18.418Z,100446.86
2023-01-30T17:17:01.019Z,100440.33
2023-01-30T17:19:29.243Z,100438.11
2023-01-30T17:21:58.576Z,100436.18
2023-01-30T17:24:27.027Z,100434.67
2023-01-30T17:27:00.415Z,100434.69
2023-01-30T17:29:42.412Z,100433.41
2023-01-30T17:32:12.414Z,100431.50
2023-01-30T17:34:41.751Z,100427.45
2023-01-30T17:37:15.931Z,100424.34
2023-01-30T17:39:44.215Z,100417.42
2023-01-30T17:42:13.671Z,100418.98
2023-01-30T17:44:42.217Z,100419.66
2023-01-30T17:47:13.638Z,100424.15
2023-01-30T17:49:45.159Z,100425.68
2023-01-30T17:52:13.712Z,100424.83
2023-01-30T17:54:42.357Z,100419.54
2023-01-30T17:57:12.236Z,100415.34
2023-01-30T17:59:41.647Z,100413.35
2023-01-30T18:02:11.203Z,100415.16
2023-01-30T18:04:40.927Z,100414.91
2023-01-30T18:07:13.709Z,100412.92
2023-01-30T18:09:45.391Z,100413.17
2023-01-30T18:12:15.249Z,100411.04
2023-01-30T18:14:45.257Z,100404.55
2023-01-30T18:17:15.489Z,100402.39
2023-01-30T18:19:45.685Z,100403.53
2023-01-30T18:22:16.507Z,100404.25
2023-01-30T18:24:47.590Z,100404.31
2023-01-30T18:27:18.546Z,100395.59
2023-01-30T18:29:49.057Z,100395.41
2023-01-30T18:32:19.997Z,100394.00
2023-01-30T18:34:51.441Z,100395.59
2023-01-30T18:37:26.492Z,100393.64
2023-01-30T18:39:59.817Z,100391.67
2023-01-30T18:42:31.211Z,100386.71
2023-01-30T18:45:02.666Z,100381.73
2023-01-30T18:47:33.940Z,100379.33
2023-01-30T18:50:05.436Z,100379.34
2023-01-30T18:52:36.423Z,100369.63
2023-01-30T18:55:08.270Z,100365.99
2023-01-30T18:57:39.035Z,100367.50
2023-01-30T19:00:09.541Z,100363.69
2023-01-30T19:02:40.652Z,100358.48
2023-01-30T19:05:11.320Z,100358.68
2023-01-30T19:07:40.755Z,100361.07
2023-01-30T19:10:11.896Z,100357.54
2023-01-30T19:13:00.125Z,100351.58
2023-01-30T19:15:29.844Z,100347.86
2023-01-30T19:17:59.140Z,100344.33
2023-01-30T19:20:28.363Z,100344.69
2023-01-30T19:22:57.991Z,100343.48
2023-01-30T19:25:27.417Z,100345.58
2023-01-30T19:28:16.522Z,100348.05
2023-01-30T19:30:45.434Z,100345.94
2023-01-30T19:33:15.206Z,100344.61
2023-01-30T19:35:44.472Z,100345.89
2023-01-30T19:38:12.962Z,100347.48
2023-01-30T19:40:45.297Z,100343.98
2023-01-30T19:43:13.943Z,100343.27
2023-01-30T19:45:42.751Z,100345.17
2023-01-30T19:48:11.060Z,100345.18
2023-01-30T19:50:39.211Z,100345.94
2023-01-30T19:53:07.309Z,100345.48
2023-01-30T19:55:35.925Z,100345.28
2023-01-30T19:58:04.837Z,100345.48
2023-01-30T20:00:33.081Z,100345.66
2023-01-30T20:03:01.226Z,100341.02
2023-01-30T20:05:31.346Z,100334.50
2023-01-30T20:07:59.494Z,100331.29
2023-01-30T20:10:27.890Z,100337.41
2023-01-30T20:12:56.238Z,100339.91
2023-01-30T20:15:24.380Z,100337.20
2023-01-30T20:17:53.389Z,100334.20
2023-01-30T20:20:21.810Z,100333.80
2023-01-30T20:22:50.411Z,100331.35
2023-01-30T20:25:18.852Z,100332.65
2023-01-30T20:27:47.115Z,100337.52
2023-01-30T20:30:16.229Z,100338.95
2023-01-30T20:32:44.685Z,100337.23
2023-01-30T20:35:13.698Z,100338.58
2023-01-30T20:37:41.715Z,100336.80
2023-01-30T20:40:10.957Z,100334.88
2023-01-30T20:42:39.708Z,100337.13
2023-01-30T20:45:08.418Z,100332.57
2023-01-30T20:47:37.640Z,100335.57
2023-01-30T20:50:05.896Z,100336.34
2023-01-30T20:52:35.317Z,100336.51
2023-01-30T20:55:03.903Z,100336.22
2023-01-30T20:57:32.062Z,100336.30
2023-01-30T21:00:00.216Z,100332.58
2023-01-30T21:02:28.623Z,100329.14
2023-01-30T21:04:56.787Z,100325.61
2023-01-30T21:07:24.880Z,100320.20
2023-01-30T21:09:52.950Z,100317.28
2023-01-30T21:12:21.068Z,100317.50
2023-01-30T21:14:51.313Z,100319.27
2023-01-30T21:17:19.589Z,100322.19
2023-01-30T21:19:47.642Z,100323.23
2023-01-30T21:22:15.747Z,100321.27
2023-01-30T21:24:43.792Z,100322.58
2023-01-30T21:27:12.284Z,100326.02
2023-01-30T21:29:41.355Z,100323.32
2023-01-30T21:32:09.625Z,100324.29
2023-01-30T21:34:38.108Z,100324.98
2023-01-30T21:37:25.105Z,100327.03
2023-01-30T21:40:11.635Z,100326.60
2023-01-30T21:42:58.568Z,100322.57
2023-01-30T21:45:26.740Z,100323.34
2023-01-30T21:47:54.820Z,100320.11
2023-01-30T21:50:22.882Z,100324.79
2023-01-30T21:52:51.546Z,100325.98
2023-01-30T21:55:20.606Z,100324.88
2023-01-30T21:57:48.823Z,100320.66
2023-01-30T22:00:17.085Z,100317.24
2023-01-30T22:02:45.131Z,100312.81
2023-01-30T22:05:13.340Z,100309.23
2023-01-30T22:07:42.707Z,100307.19
2023-01-30T22:10:11.224Z,100309.29
2023-01-30T22:12:41.637Z,100312.26
2023-01-30T22:15:10.047Z,100310.45
2023-01-30T22:17:38.638Z,100307.16
2023-01-30T22:20:10.035Z,100306.27
2023-01-30T22:22:38.690Z,100304.22
2023-01-30T22:25:11.711Z,100304.48
2023-01-30T22:27:39.743Z,100303.71
2023-01-30T22:30:08.741Z,100303.93
2023-01-30T22:32:39.651Z,100299.83
2023-01-30T22:35:08.477Z,100296.85
2023-01-30T22:37:37.303Z,100295.91
2023-01-30T22:40:06.510Z,100296.61
2023-01-30T22:42:35.914Z,100292.40
2023-01-30T22:45:04.945Z,100289.06
2023-01-30T22:47:33.239Z,100287.14
2023-01-30T22:50:01.533Z,100286.30
2023-01-30T22:52:29.986Z,100294.14
2023-01-30T22:54:58.259Z,100292.18
2023-01-30T22:57:26.654Z,100294.30
2023-01-30T22:59:54.812Z,100296.29
2023-01-30T23:02:23.093Z,100297.92
2023-01-30T23:04:52.089Z,100294.75
2023-01-30T23:07:22.345Z,100295.90
2023-01-30T23:09:50.899Z,100296.91
2023-01-30T23:12:39.065Z,100296.49
2023-01-30T23:15:07.947Z,100299.91
2023-01-30T23:17:54.805Z,100302.79
2023-01-30T23:20:24.745Z,100296.99
2023-01-30T23:22:53.340Z,100291.06
2023-01-30T23:25:22.185Z,100285.68
2023-01-30T23:27:50.557Z,100280.69
2023-01-30T23:30:18.702Z,100285.72
2023-01-30T23:32:47.372Z,100286.34
2023-01-30T23:35:15.753Z,100282.77
2023-01-30T23:38:02.769Z,100282.80
2023-01-30T23:40:32.066Z,100285.23
2023-01-30T23:43:00.344Z,100285.61
2023-01-30T23:45:29.663Z,100288.54
2023-01-30T23:47:58.010Z,100289.63
2023-01-30T23:50:26.400Z,100290.86
2023-01-30T23:52:54.472Z,100286.83
2023-01-30T23:55:22.956Z,100286.54
2023-01-30T23:57:51.029Z,100283.36
